createdAt,value
2023-03-05T00:01:47.046Z,1.40
2023-03-05T00:03:49.260Z,1.30
2023-03-05T00:05:56.017Z,1.20
2023-03-05T00:07:57.747Z,1.20
2023-03-05T00:10:04.588Z,1.20
2023-03-05T00:12:06.879Z,1.10
2023-03-05T00:14:08.640Z,1.10
2023-03-05T00:16:12.045Z,1.10
2023-03-05T00:18:13.852Z,1.10
2023-03-05T00:20:15.661Z,1.00
2023-03-05T00:22:17.594Z,0.90
2023-03-05T00:24:19.450Z,0.90
2023-03-05T00:26:22.268Z,0.90
2023-03-05T00:28:24.102Z,0.90
2023-03-05T00:30:25.861Z,0.80
2023-03-05T00:32:27.653Z,0.90
2023-03-05T00:34:29.667Z,1.00
2023-03-05T00:36:31.995Z,1.10
2023-03-05T00:38:33.774Z,1.10
2023-03-05T00:40:37.085Z,1.30
2023-03-05T00:42:38.924Z,1.20
2023-03-05T00:44:40.686Z,1.40
2023-03-05T00:46:42.520Z,1.40
2023-03-05T00:48:44.528Z,1.50
2023-03-05T00:50:46.357Z,1.50
2023-03-05T00:52:48.107Z,1.50
2023-03-05T00:54:50.762Z,1.50
2023-03-05T00:56:52.492Z,1.50
2023-03-05T00:58:54.358Z,1.50
2023-03-05T01:01:00.038Z,1.60
2023-03-05T01:03:01.800Z,1.60
2023-03-05T01:05:03.827Z,1.50
2023-03-05T01:07:05.710Z,1.60
2023-03-05T01:09:07.516Z,1.60
2023-03-05T01:11:10.125Z,1.60
2023-03-05T01:13:11.944Z,1.50
2023-03-05T01:15:13.704Z,1.50
2023-03-05T01:17:15.430Z,1.40
2023-03-05T01:19:17.569Z,1.40
2023-03-05T01:21:20.268Z,1.50
2023-03-05T01:23:22.022Z,1.40
2023-03-05T01:25:23.730Z,1.60
2023-03-05T01:27:25.514Z,1.50
2023-03-05T01:29:28.275Z,1.50
2023-03-05T01:31:30.213Z,1.60
2023-03-05T01:33:31.998Z,1.60
2023-03-05T01:35:33.831Z,1.60
2023-03-05T01:37:35.659Z,1.60
2023-03-05T01:39:37.477Z,1.60
2023-03-05T01:41:39.211Z,1.60
2023-03-05T01:43:41.065Z,1.60
2023-03-05T01:46:01.750Z,1.60
2023-03-05T01:48:03.597Z,1.60
2023-03-05T01:50:07.054Z,1.60
2023-03-05T01:52:17.688Z,1.50
2023-03-05T01:54:20.686Z,1.50
2023-03-05T01:56:22.493Z,1.60
2023-03-05T01:58:25.489Z,1.50
2023-03-05T02:00:33.583Z,1.50
2023-03-05T02:02:35.332Z,1.50
2023-03-05T02:04:46.139Z,1.50
2023-03-05T02:06:49.910Z,1.50
2023-03-05T02:08:51.730Z,1.50
2023-03-05T02:10:56.371Z,1.50
2023-03-05T02:13:00.384Z,1.50
2023-03-05T02:15:02.171Z,1.50
2023-03-05T02:17:04.062Z,1.50
2023-03-05T02:19:07.089Z,1.40
2023-03-05T02:21:09.849Z,1.40
2023-03-05T02:23:11.587Z,1.40
2023-03-05T02:25:20.307Z,1.40
2023-03-05T02:27:24.968Z,1.40
2023-03-05T02:29:27.823Z,1.30
2023-03-05T02:31:31.232Z,1.20
2023-03-05T02:33:33.056Z,1.20
2023-03-05T02:35:34.827Z,1.20
2023-03-05T02:37:36.614Z,1.10
2023-03-05T02:39:38.439Z,1.00
2023-03-05T02:41:40.166Z,1.00
2023-03-05T02:43:42.254Z,0.90
2023-03-05T02:45:44.060Z,0.90
2023-03-05T02:47:45.821Z,0.90
2023-03-05T02:49:47.663Z,0.90
2023-03-05T02:51:49.578Z,0.80
2023-03-05T02:53:51.391Z,0.80
2023-03-05T02:55:53.140Z,0.80
2023-03-05T02:57:54.937Z,0.70
2023-03-05T02:59:56.702Z,0.80
2023-03-05T03:01:59.783Z,0.60
2023-03-05T03:04:01.603Z,0.50
2023-03-05T03:06:03.620Z,0.50
2023-03-05T03:08:05.449Z,0.50
2023-03-05T03:10:07.541Z,0.40
2023-03-05T03:12:09.834Z,0.40
2023-03-05T03:14:11.581Z,0.30
2023-03-05T03:16:14.554Z,0.20
2023-03-05T03:18:16.325Z,0.20
2023-03-05T03:20:18.527Z,0.20
2023-03-05T03:22:20.315Z,0.10
2023-03-05T03:24:22.097Z,0.10
2023-03-05T03:26:24.036Z,0.10
2023-03-05T03:28:25.968Z,0.00
2023-03-05T03:30:27.728Z,0.00
2023-03-05T03:32:29.681Z,-0.20
2023-03-05T03:34:31.505Z,-0.20
2023-03-05T03:36:34.184Z,-0.20
2023-03-05T03:38:35.964Z,-0.20
2023-03-05T03:40:38.396Z,-0.10
2023-03-05T03:42:40.242Z,0.00
2023-03-05T03:44:42.021Z,0.10
2023-03-05T03:46:46.219Z,0.10
2023-03-05T03:48:49.771Z,0.10
2023-03-05T03:50:51.547Z,0.20
2023-03-05T03:52:53.355Z,0.20
2023-03-05T03:55:01.326Z,0.10
2023-03-05T03:57:03.740Z,0.00
2023-03-05T03:59:05.582Z,-0.10
2023-03-05T04:01:07.332Z,0.00
2023-03-05T04:03:09.312Z,0.00
2023-03-05T04:05:11.163Z,-0.10
2023-03-05T04:07:12.938Z,-0.10
2023-03-05T04:09:14.707Z,-0.20
2023-03-05T04:11:19.363Z,-0.20
2023-03-05T04:13:21.134Z,-0.40
2023-03-05T04:15:22.868Z,-0.40
2023-03-05T04:17:24.659Z,-0.30
2023-03-05T04:19:26.396Z,-0.40
2023-03-05T04:21:29.587Z,-0.40
2023-03-05T04:23:31.653Z,-0.40
2023-03-05T04:25:34.366Z,-0.40
2023-03-05T04:27:37.617Z,-0.40
2023-03-05T04:29:39.418Z,-0.40
2023-03-05T04:31:41.145Z,-0.40
2023-03-05T04:33:42.870Z,-0.50
2023-03-05T04:35:44.768Z,-0.50
2023-03-05T04:37:47.388Z,-0.60
2023-03-05T04:39:49.134Z,-0.50
2023-03-05T04:41:50.973Z,-0.50
2023-03-05T04:43:52.723Z,-0.40
2023-03-05T04:45:55.152Z,-0.30
2023-03-05T04:47:57.630Z,-0.40
2023-03-05T04:49:59.388Z,-0.30
2023-03-05T04:52:01.163Z,-0.30
2023-03-05T04:54:03.016Z,-0.20
2023-03-05T04:56:04.928Z,-0.20
2023-03-05T04:58:06.688Z,-0.20
2023-03-05T05:00:14.469Z,-0.10
2023-03-05T05:02:16.274Z,-0.10
2023-03-05T05:04:18.033Z,-0.10
2023-03-05T05:06:19.846Z,0.00
2023-03-05T05:08:21.801Z,0.00
2023-03-05T05:10:24.168Z,0.00
2023-03-05T05:12:28.589Z,0.00
2023-03-05T05:14:30.344Z,0.00
2023-03-05T05:16:32.150Z,0.00
2023-03-05T05:18:33.974Z,0.00
2023-03-05T05:20:35.706Z,0.00
2023-03-05T05:22:37.598Z,0.00
2023-03-05T05:24:39.378Z,0.00
2023-03-05T05:26:41.094Z,0.00
2023-03-05T05:28:43.516Z,0.00
2023-03-05T05:30:45.327Z,0.10
2023-03-05T05:32:47.087Z,0.00
2023-03-05T05:34:48.878Z,0.00
2023-03-05T05:36:50.697Z,0.00
2023-03-05T05:38:52.448Z,0.00
2023-03-05T05:40:54.210Z,-0.10
2023-03-05T05:42:56.029Z,0.00
2023-03-05T05:44:57.764Z,0.00
2023-03-05T05:46:59.513Z,-0.10
2023-03-05T05:49:01.389Z,0.00
2023-03-05T05:51:10.499Z,0.10
2023-03-05T05:53:12.257Z,0.00
2023-03-05T05:55:14.109Z,0.10
2023-03-05T05:57:15.903Z,0.00
2023-03-05T05:59:17.684Z,0.10
2023-03-05T06:01:24.398Z,0.10
2023-03-05T06:03:26.230Z,0.10
2023-03-05T06:05:28.114Z,0.20
2023-03-05T06:07:29.842Z,0.20
2023-03-05T06:09:31.597Z,0.30
2023-03-05T06:11:34.110Z,0.20
2023-03-05T06:13:35.903Z,0.30
2023-03-05T06:15:37.655Z,0.30
2023-03-05T06:17:39.465Z,0.40
2023-03-05T06:19:41.230Z,0.30
2023-03-05T06:21:45.707Z,0.40
2023-03-05T06:23:47.951Z,0.40
2023-03-05T06:25:49.855Z,0.50
2023-03-05T06:27:51.566Z,0.50
2023-03-05T06:29:54.391Z,0.40
2023-03-05T06:31:56.157Z,0.40
2023-03-05T06:33:58.757Z,0.30
2023-03-05T06:36:02.479Z,0.50
2023-03-05T06:38:04.283Z,0.50
2023-03-05T06:40:07.790Z,0.60
2023-03-05T06:42:10.206Z,0.40
2023-03-05T06:44:11.985Z,0.50
2023-03-05T06:46:43.087Z,0.50
2023-03-05T06:48:44.924Z,0.70
2023-03-05T06:50:46.692Z,0.70
2023-03-05T06:52:51.447Z,0.80
2023-03-05T06:54:55.844Z,0.50
2023-03-05T06:56:57.780Z,0.70
2023-03-05T06:58:59.634Z,0.70
2023-03-05T07:01:01.580Z,0.60
2023-03-05T07:03:03.522Z,0.50
2023-03-05T07:05:06.192Z,0.60
2023-03-05T07:07:07.928Z,0.70
2023-03-05T07:09:12.989Z,0.70
2023-03-05T07:11:18.665Z,0.80
2023-03-05T07:13:20.429Z,1.00
2023-03-05T07:15:22.300Z,0.80
2023-03-05T07:17:24.098Z,0.90
2023-03-05T07:19:25.839Z,0.80
2023-03-05T07:21:28.554Z,0.80
2023-03-05T07:23:30.376Z,0.80
2023-03-05T07:25:32.245Z,0.90
2023-03-05T07:27:37.951Z,1.10
2023-03-05T07:29:39.776Z,1.00
2023-03-05T07:31:41.498Z,1.00
2023-03-05T07:33:43.465Z,1.00
2023-03-05T07:35:45.313Z,1.10
2023-03-05T07:37:47.278Z,1.00
2023-03-05T07:39:49.106Z,0.90
2023-03-05T07:41:51.801Z,1.10
2023-03-05T07:43:54.344Z,1.40
2023-03-05T07:45:56.237Z,1.40
2023-03-05T07:47:58.047Z,1.00
2023-03-05T07:49:59.810Z,1.00
2023-03-05T07:52:01.566Z,1.20
2023-03-05T07:54:03.464Z,1.40
2023-03-05T07:56:05.484Z,1.30
2023-03-05T07:58:07.331Z,1.40
2023-03-05T08:00:09.311Z,1.20
2023-03-05T08:02:12.246Z,1.40
2023-03-05T08:04:14.105Z,1.20
2023-03-05T08:06:16.084Z,1.10
2023-03-05T08:08:18.655Z,1.20
2023-03-05T08:10:20.548Z,1.70
2023-03-05T08:12:23.190Z,1.60
2023-03-05T08:14:24.949Z,1.80
2023-03-05T08:16:27.124Z,1.40
2023-03-05T08:18:28.873Z,1.60
2023-03-05T08:20:30.663Z,1.40
2023-03-05T08:22:35.521Z,1.40
2023-03-05T08:24:37.318Z,1.80
2023-03-05T08:26:39.567Z,1.80
2023-03-05T08:28:41.331Z,1.80
2023-03-05T08:30:43.055Z,1.90
2023-03-05T08:32:45.048Z,1.70
2023-03-05T08:34:46.846Z,1.60
2023-03-05T08:36:49.130Z,1.40
2023-03-05T08:38:51.287Z,1.50
2023-03-05T08:40:53.081Z,1.70
2023-03-05T08:42:54.812Z,1.80
2023-03-05T08:44:59.125Z,1.80
2023-03-05T08:47:00.920Z,1.90
2023-03-05T08:49:02.752Z,1.90
2023-03-05T08:51:08.442Z,2.00
2023-03-05T08:53:10.216Z,1.90
2023-03-05T08:55:12.841Z,1.80
2023-03-05T08:57:14.618Z,2.20
2023-03-05T08:59:16.596Z,2.00
2023-03-05T09:01:18.519Z,2.10
2023-03-05T09:03:20.263Z,2.00
2023-03-05T09:05:22.472Z,2.10
2023-03-05T09:07:24.258Z,2.40
2023-03-05T09:09:26.046Z,2.40
2023-03-05T09:11:27.832Z,2.30
2023-03-05T09:13:29.600Z,2.30
2023-03-05T09:15:31.515Z,2.10
2023-03-05T09:17:33.256Z,2.50
2023-03-05T09:19:35.019Z,2.50
2023-03-05T09:21:37.031Z,2.70
2023-03-05T09:23:39.276Z,2.50
2023-03-05T09:25:41.309Z,2.80
2023-03-05T09:27:43.911Z,3.00
2023-03-05T09:29:45.709Z,2.40
2023-03-05T09:31:50.349Z,2.40
2023-03-05T09:33:52.273Z,2.30
2023-03-05T09:35:54.135Z,2.60
2023-03-05T09:37:56.217Z,2.60
2023-03-05T09:39:57.937Z,2.70
2023-03-05T09:41:59.656Z,2.70
2023-03-05T09:44:08.897Z,2.90
2023-03-05T09:46:19.141Z,2.90
2023-03-05T09:48:25.809Z,3.10
2023-03-05T09:50:31.820Z,3.20
2023-03-05T09:52:43.281Z,3.10
2023-03-05T09:54:47.181Z,2.70
2023-03-05T09:56:50.748Z,2.80
2023-03-05T09:58:56.094Z,2.70
2023-03-05T10:01:00.889Z,2.80
2023-03-05T10:03:05.601Z,2.80
2023-03-05T10:05:18.131Z,2.90
2023-03-05T10:07:26.161Z,3.10
2023-03-05T10:09:36.861Z,3.40
2023-03-05T10:11:41.738Z,3.30
2023-03-05T10:13:45.571Z,3.20
2023-03-05T10:15:59.105Z,3.30
2023-03-05T10:18:19.309Z,3.30
2023-03-05T10:20:30.331Z,3.10
2023-03-05T10:22:33.947Z,3.20
2023-03-05T10:24:55.925Z,3.20
2023-03-05T10:27:00.370Z,3.10
2023-03-05T10:29:08.354Z,3.50
2023-03-05T10:31:19.038Z,3.30
2023-03-05T10:33:33.662Z,2.90
2023-03-05T10:35:44.635Z,3.10
2023-03-05T10:37:47.185Z,3.40
2023-03-05T10:40:00.642Z,3.20
2023-03-05T10:42:17.927Z,3.30
2023-03-05T10:44:31.705Z,4.00
2023-03-05T10:46:36.025Z,3.60
2023-03-05T10:48:46.594Z,3.50
2023-03-05T10:50:50.662Z,3.30
2023-03-05T10:53:06.731Z,3.40
2023-03-05T10:55:16.796Z,3.30
2023-03-05T10:57:20.428Z,3.80
2023-03-05T10:59:22.228Z,3.80
2023-03-05T11:01:25.589Z,3.80
2023-03-05T11:03:45.395Z,3.60
2023-03-05T11:06:00.775Z,3.90
2023-03-05T11:08:17.731Z,3.40
2023-03-05T11:10:21.326Z,3.80
2023-03-05T11:12:27.695Z,3.50
2023-03-05T11:14:33.137Z,3.90
2023-03-05T11:16:45.506Z,3.50
2023-03-05T11:18:47.860Z,3.60
2023-03-05T11:20:50.113Z,4.00
2023-03-05T11:23:10.880Z,3.90
2023-03-05T11:25:18.875Z,3.90
2023-03-05T11:27:23.478Z,3.80
2023-03-05T11:29:30.146Z,4.00
2023-03-05T11:31:32.846Z,4.00
2023-03-05T11:33:35.990Z,4.10
2023-03-05T11:35:39.657Z,4.30
2023-03-05T11:37:41.489Z,4.30
2023-03-05T11:39:43.347Z,4.50
2023-03-05T11:41:48.625Z,4.10
2023-03-05T11:43:51.370Z,4.00
2023-03-05T11:46:01.665Z,4.10
2023-03-05T11:48:11.547Z,4.30
2023-03-05T11:50:19.966Z,4.70
2023-03-05T11:52:44.848Z,4.30
2023-03-05T11:54:46.537Z,4.50
2023-03-05T11:56:48.550Z,4.40
2023-03-05T11:58:52.770Z,3.90
2023-03-05T12:00:55.029Z,4.10
2023-03-05T12:03:00.549Z,4.00
2023-03-05T12:05:04.366Z,4.10
2023-03-05T12:07:07.460Z,4.20
2023-03-05T12:09:25.097Z,4.20
2023-03-05T12:11:28.733Z,4.40
2023-03-05T12:13:36.758Z,4.40
2023-03-05T12:15:49.473Z,4.40
2023-03-05T12:18:03.349Z,4.40
2023-03-05T12:20:18.418Z,4.40
2023-03-05T12:22:22.300Z,4.70
2023-03-05T12:24:27.345Z,4.10
2023-03-05T12:27:09.282Z,4.40
2023-03-05T12:29:26.844Z,4.50
2023-03-05T12:31:35.315Z,3.90
2023-03-05T12:33:38.541Z,4.30
2023-03-05T12:35:41.186Z,4.50
2023-03-05T12:37:42.999Z,4.30
2023-03-05T12:39:45.262Z,4.20
2023-03-05T12:41:47.096Z,4.40
2023-03-05T12:44:07.066Z,4.10
2023-03-05T12:46:24.458Z,4.50
2023-03-05T12:48:26.254Z,4.10
2023-03-05T12:50:28.306Z,4.30
2023-03-05T12:52:31.309Z,4.30
2023-03-05T12:54:34.366Z,4.00
2023-03-05T12:56:40.323Z,4.20
2023-03-05T12:58:46.605Z,4.10
2023-03-05T13:00:50.139Z,4.30
2023-03-05T13:02:56.264Z,4.20
2023-03-05T13:04:59.612Z,4.40
2023-03-05T13:07:03.405Z,4.30
2023-03-05T13:09:08.805Z,4.30
2023-03-05T13:11:19.020Z,4.50
2023-03-05T13:13:21.596Z,4.20
2023-03-05T13:15:24.744Z,4.40
2023-03-05T13:17:29.482Z,4.20
2023-03-05T13:19:32.934Z,4.10
2023-03-05T13:21:35.423Z,4.00
2023-03-05T13:23:37.428Z,3.90
2023-03-05T13:25:39.189Z,4.00
2023-03-05T13:27:41.722Z,4.30
2023-03-05T13:29:50.737Z,4.20
2023-03-05T13:31:55.200Z,4.00
2023-03-05T13:34:07.888Z,3.70
2023-03-05T13:36:15.069Z,3.80
2023-03-05T13:38:21.717Z,3.90
2023-03-05T13:40:25.233Z,4.00
2023-03-05T13:42:32.400Z,4.00
2023-03-05T13:44:34.620Z,4.00
2023-03-05T13:46:38.664Z,3.90
2023-03-05T13:48:40.534Z,3.90
2023-03-05T13:50:43.215Z,3.90
2023-03-05T13:52:45.031Z,3.90
2023-03-05T13:54:46.794Z,3.70
2023-03-05T13:56:53.207Z,3.70
2023-03-05T13:58:56.924Z,3.90
2023-03-05T14:01:05.394Z,3.80
2023-03-05T14:03:27.513Z,4.00
2023-03-05T14:05:30.983Z,4.10
2023-03-05T14:07:41.096Z,4.10
2023-03-05T14:09:46.401Z,4.00
2023-03-05T14:11:54.480Z,4.00
2023-03-05T14:14:00.305Z,3.90
2023-03-05T14:16:11.289Z,3.90
2023-03-05T14:18:13.058Z,3.70
2023-03-05T14:20:23.537Z,3.80
2023-03-05T14:22:33.048Z,3.70
2023-03-05T14:24:34.812Z,3.70
2023-03-05T14:26:40.794Z,3.70
2023-03-05T14:28:42.609Z,3.80
2023-03-05T14:30:48.287Z,4.20
2023-03-05T14:32:51.130Z,5.20
2023-03-05T14:34:56.499Z,5.50
2023-03-05T14:37:00.536Z,5.40
2023-03-05T14:39:02.328Z,5.00
2023-03-05T14:41:22.807Z,5.60
2023-03-05T14:43:24.578Z,5.50
2023-03-05T14:45:27.903Z,6.10
2023-03-05T14:47:29.716Z,5.50
2023-03-05T14:49:31.438Z,5.80
2023-03-05T14:51:35.375Z,5.70
2023-03-05T14:53:42.536Z,5.70
2023-03-05T14:55:48.811Z,5.50
2023-03-05T14:57:51.732Z,5.00
2023-03-05T14:59:54.418Z,5.40
2023-03-05T15:01:57.642Z,5.40
2023-03-05T15:04:01.084Z,5.10
2023-03-05T15:06:03.106Z,4.30
2023-03-05T15:08:05.121Z,4.80
2023-03-05T15:10:08.689Z,4.50
2023-03-05T15:12:15.058Z,4.40
2023-03-05T15:14:16.981Z,4.10
2023-03-05T15:16:19.224Z,4.10
2023-03-05T15:18:22.403Z,4.50
2023-03-05T15:20:25.475Z,4.40
2023-03-05T15:22:27.299Z,4.30
2023-03-05T15:24:29.062Z,4.10
2023-03-05T15:26:30.881Z,3.70
2023-03-05T15:28:34.598Z,3.30
2023-03-05T15:30:41.025Z,3.10
2023-03-05T15:32:42.754Z,2.90
2023-03-05T15:34:44.522Z,2.70
2023-03-05T15:36:46.307Z,2.60
2023-03-05T15:38:48.179Z,2.60
2023-03-05T15:40:50.433Z,2.50
2023-03-05T15:42:52.271Z,2.40
2023-03-05T15:44:54.112Z,2.40
2023-03-05T15:46:56.918Z,2.30
2023-03-05T15:48:58.745Z,2.30
2023-03-05T15:51:01.818Z,2.20
2023-03-05T15:53:03.631Z,2.20
2023-03-05T15:55:05.647Z,2.20
2023-03-05T15:57:08.798Z,2.20
2023-03-05T15:59:10.571Z,2.00
2023-03-05T16:01:12.550Z,2.10
2023-03-05T16:03:14.459Z,2.00
2023-03-05T16:05:16.390Z,1.90
2023-03-05T16:07:18.707Z,1.80
2023-03-05T16:09:21.771Z,1.80
2023-03-05T16:11:23.662Z,1.80
2023-03-05T16:13:28.605Z,1.80
2023-03-05T16:15:31.840Z,1.70
2023-03-05T16:17:34.449Z,1.60
2023-03-05T16:19:38.249Z,1.60
2023-03-05T16:21:40.171Z,1.50
2023-03-05T16:23:42.003Z,1.50
2023-03-05T16:25:43.867Z,1.50
2023-03-05T16:27:45.814Z,1.50
2023-03-05T16:29:47.629Z,1.40
2023-03-05T16:31:49.507Z,1.50
2023-03-05T16:33:51.635Z,1.40
2023-03-05T16:36:13.308Z,1.30
2023-03-05T16:38:15.433Z,1.30
2023-03-05T16:40:17.484Z,1.20
2023-03-05T16:42:19.396Z,1.20
2023-03-05T16:44:21.250Z,1.20
2023-03-05T16:46:26.972Z,1.10
2023-03-05T16:48:29.549Z,1.20
2023-03-05T16:50:31.383Z,1.20
2023-03-05T16:52:33.161Z,1.10
2023-03-05T16:54:37.040Z,1.10
2023-03-05T16:56:38.875Z,1.00
2023-03-05T16:58:40.881Z,1.10
2023-03-05T17:00:42.792Z,1.10
2023-03-05T17:02:45.804Z,1.10
2023-03-05T17:04:47.666Z,1.10
2023-03-05T17:06:49.808Z,1.00
2023-03-05T17:08:51.981Z,0.80
2023-03-05T17:10:53.784Z,0.80
2023-03-05T17:12:56.615Z,0.90
2023-03-05T17:14:58.381Z,0.80
2023-03-05T17:17:01.324Z,0.80
2023-03-05T17:19:03.082Z,0.70
2023-03-05T17:21:05.709Z,0.60
2023-03-05T17:23:07.600Z,0.50
2023-03-05T17:25:09.380Z,0.50
2023-03-05T17:27:11.227Z,0.50
2023-03-05T17:29:13.177Z,0.40
2023-03-05T17:31:14.997Z,0.40
2023-03-05T17:33:16.884Z,0.40
2023-03-05T17:35:20.304Z,0.40
2023-03-05T17:37:22.592Z,0.40
2023-03-05T17:39:24.450Z,0.30
2023-03-05T17:41:26.199Z,0.40
2023-03-05T17:43:27.990Z,0.30
2023-03-05T17:45:29.959Z,0.40
2023-03-05T17:47:33.133Z,0.30
2023-03-05T17:49:35.638Z,0.30
2023-03-05T17:51:38.076Z,0.30
2023-03-05T17:53:40.390Z,0.20
2023-03-05T17:55:42.833Z,0.30
2023-03-05T17:57:44.919Z,0.20
2023-03-05T17:59:46.768Z,0.10
2023-03-05T18:01:48.558Z,0.30
2023-03-05T18:03:50.460Z,0.40
2023-03-05T18:05:52.997Z,0.40
2023-03-05T18:07:55.537Z,0.30
2023-03-05T18:09:57.393Z,0.20
2023-03-05T18:11:59.387Z,0.10
2023-03-05T18:14:01.347Z,0.00
2023-03-05T18:16:03.325Z,0.00
2023-03-05T18:18:05.167Z,-0.10
2023-03-05T18:20:07.749Z,-0.10
2023-03-05T18:22:09.594Z,-0.20
2023-03-05T18:24:11.397Z,-0.20
2023-03-05T18:26:13.200Z,-0.30
2023-03-05T18:28:15.918Z,-0.20
2023-03-05T18:30:17.920Z,-0.20
2023-03-05T18:32:21.103Z,-0.30
2023-03-05T18:34:25.041Z,-0.40
2023-03-05T18:36:26.827Z,-0.30
2023-03-05T18:38:29.540Z,-0.50
2023-03-05T18:40:33.682Z,-0.60
2023-03-05T18:42:36.650Z,-0.40
2023-03-05T18:44:38.444Z,-0.60
2023-03-05T18:46:40.650Z,-0.60
2023-03-05T18:48:42.524Z,-0.60
2023-03-05T18:50:44.506Z,-0.50
2023-03-05T18:52:46.397Z,-0.60
2023-03-05T18:54:48.125Z,-0.50
2023-03-05T18:56:49.909Z,-0.50
2023-03-05T18:58:51.699Z,-0.60
2023-03-05T19:00:53.435Z,-0.70
2023-03-05T19:02:55.531Z,-0.80
2023-03-05T19:04:59.428Z,-0.60
2023-03-05T19:07:01.159Z,-0.50
2023-03-05T19:09:08.618Z,-0.60
2023-03-05T19:11:14.726Z,-0.60
2023-03-05T19:13:39.531Z,-0.60
2023-03-05T19:15:44.196Z,-0.60
2023-03-05T19:17:46.094Z,-0.70
2023-03-05T19:19:51.800Z,-0.80
2023-03-05T19:21:55.113Z,-0.70
2023-03-05T19:23:57.056Z,-0.80
2023-03-05T19:26:00.611Z,-0.80
2023-03-05T19:28:02.440Z,-1.00
2023-03-05T19:30:05.330Z,-1.10
2023-03-05T19:32:08.606Z,-1.20
2023-03-05T19:34:10.368Z,-1.20
2023-03-05T19:36:12.838Z,-1.20
2023-03-05T19:38:14.593Z,-1.30
2023-03-05T19:40:20.282Z,-1.30
2023-03-05T19:42:22.131Z,-1.30
2023-03-05T19:44:24.279Z,-1.30
2023-03-05T19:46:26.252Z,-1.40
2023-03-05T19:48:30.410Z,-1.40
2023-03-05T19:50:34.368Z,-1.40
2023-03-05T19:52:36.889Z,-1.40
2023-03-05T19:54:39.283Z,-1.60
2023-03-05T19:56:41.915Z,-1.40
2023-03-05T19:58:45.521Z,-1.30
2023-03-05T20:00:47.646Z,-1.40
2023-03-05T20:02:49.415Z,-1.30
2023-03-05T20:04:51.167Z,-1.40
2023-03-05T20:06:53.002Z,-1.50
2023-03-05T20:08:55.101Z,-1.40
2023-03-05T20:10:58.938Z,-1.50
2023-03-05T20:13:02.653Z,-1.60
2023-03-05T20:15:05.354Z,-1.70
2023-03-05T20:17:07.085Z,-1.70
2023-03-05T20:19:14.558Z,-1.70
2023-03-05T20:21:21.437Z,-1.80
2023-03-05T20:23:24.612Z,-1.80
2023-03-05T20:25:26.537Z,-1.70
2023-03-05T20:27:28.284Z,-1.80
2023-03-05T20:29:30.048Z,-1.80
2023-03-05T20:31:33.995Z,-1.90
2023-03-05T20:33:36.392Z,-1.90
2023-03-05T20:35:38.203Z,-2.00
2023-03-05T20:37:49.307Z,-2.00
2023-03-05T20:39:52.798Z,-2.10
2023-03-05T20:41:54.568Z,-2.20
2023-03-05T20:43:56.393Z,-2.20
2023-03-05T20:45:58.755Z,-2.20
2023-03-05T20:48:00.502Z,-2.20
2023-03-05T20:50:02.244Z,-2.20
2023-03-05T20:52:04.044Z,-2.20
2023-03-05T20:54:07.821Z,-2.30
2023-03-05T20:56:09.668Z,-2.30
2023-03-05T20:58:11.832Z,-2.40
2023-03-05T21:00:13.945Z,-2.40
2023-03-05T21:02:15.981Z,-2.40
2023-03-05T21:04:17.744Z,-2.40
2023-03-05T21:06:19.631Z,-2.40
2023-03-05T21:08:21.372Z,-2.50
2023-03-05T21:10:23.582Z,-2.50
2023-03-05T21:12:25.767Z,-2.60
2023-03-05T21:14:27.578Z,-2.50
2023-03-05T21:16:29.457Z,-2.50
2023-03-05T21:18:31.522Z,-2.50
2023-03-05T21:20:33.345Z,-2.50
2023-03-05T21:22:35.412Z,-2.60
2023-03-05T21:24:53.638Z,-2.70
2023-03-05T21:26:55.601Z,-2.60
2023-03-05T21:28:57.344Z,-2.60
2023-03-05T21:31:05.253Z,-2.60
2023-03-05T21:33:09.011Z,-2.60
2023-03-05T21:35:21.554Z,-2.70
2023-03-05T21:37:23.357Z,-2.70
2023-03-05T21:39:25.157Z,-2.70
2023-03-05T21:41:27.600Z,-2.80
2023-03-05T21:43:31.168Z,-2.80
2023-03-05T21:45:33.263Z,-2.80
2023-03-05T21:47:35.068Z,-2.80
2023-03-05T21:49:36.870Z,-2.70
2023-03-05T21:51:51.280Z,-2.80
2023-03-05T21:53:53.002Z,-2.70
2023-03-05T21:56:13.654Z,-2.70
2023-03-05T21:58:15.645Z,-2.90
2023-03-05T22:00:22.656Z,-2.90
2023-03-05T22:02:24.595Z,-2.90
2023-03-05T22:04:26.626Z,-2.90
2023-03-05T22:06:28.381Z,-2.90
2023-03-05T22:08:30.216Z,-2.90
2023-03-05T22:10:32.054Z,-2.80
2023-03-05T22:13:01.302Z,-2.90
2023-03-05T22:15:03.064Z,-2.90
2023-03-05T22:17:04.846Z,-2.90
2023-03-05T22:19:07.185Z,-3.00
2023-03-05T22:21:16.625Z,-3.00
2023-03-05T22:23:19.477Z,-3.00
2023-03-05T22:25:21.232Z,-3.00
2023-03-05T22:27:22.960Z,-3.00
2023-03-05T22:29:26.946Z,-3.00
2023-03-05T22:31:28.691Z,-3.10
2023-03-05T22:33:30.757Z,-3.00
2023-03-05T22:35:32.603Z,-3.00
2023-03-05T22:37:34.431Z,-2.90
2023-03-05T22:39:36.180Z,-3.00
2023-03-05T22:41:40.167Z,-3.10
2023-03-05T22:43:41.977Z,-3.10
2023-03-05T22:45:43.843Z,-3.20
2023-03-05T22:47:46.429Z,-3.30
2023-03-05T22:49:48.171Z,-3.30
2023-03-05T22:51:49.914Z,-3.40
2023-03-05T22:53:51.708Z,-3.40
2023-03-05T22:55:54.088Z,-3.30
2023-03-05T22:57:55.795Z,-3.30
2023-03-05T22:59:57.608Z,-3.40
2023-03-05T23:01:59.351Z,-3.40
2023-03-05T23:04:08.267Z,-3.50
2023-03-05T23:06:10.123Z,-3.40
2023-03-05T23:08:11.881Z,-3.50
2023-03-05T23:10:16.138Z,-3.50
2023-03-05T23:12:18.214Z,-3.50
2023-03-05T23:14:20.337Z,-3.50
2023-03-05T23:16:23.339Z,-3.60
2023-03-05T23:18:25.156Z,-3.40
2023-03-05T23:20:28.719Z,-3.40
2023-03-05T23:22:30.629Z,-3.40
2023-03-05T23:24:33.019Z,-3.50
2023-03-05T23:26:34.764Z,-3.50
2023-03-05T23:28:36.560Z,-3.60
2023-03-05T23:30:39.652Z,-3.60
2023-03-05T23:32:41.505Z,-3.70
2023-03-05T23:34:43.233Z,-3.70
2023-03-05T23:36:45.006Z,-3.70
2023-03-05T23:38:46.766Z,-3.70
2023-03-05T23:40:49.788Z,-3.70
2023-03-05T23:42:51.856Z,-3.80
2023-03-05T23:44:54.187Z,-3.70
2023-03-05T23:46:55.985Z,-3.70
2023-03-05T23:48:57.977Z,-3.70
2023-03-05T23:50:59.757Z,-3.80
2023-03-05T23:53:02.461Z,-3.80
2023-03-05T23:55:04.578Z,-3.80
2023-03-05T23:57:06.308Z,-3.70
2023-03-05T23:59:08.032Z,-3.80
